Time;durP1;ratioP1;P1;durP2;ratioP2;P2;SDS_P1;SDS_P2;PMS_P1;PMS_P2;Temp;Humidity;BMP_temperature;BMP_pressure;BME280_temperature;BME280_humidity;BME280_pressure;Samples;Min_cycle;Max_cycle;Signal;HPM_P1;HPM_P2
2022/12/03 00:03:28;;;;;;;17.73;12.77;;;;;;;1.80;62.03;99994.84;10278595;28;20236;-34
2022/12/03 00:08:30;;;;;;;20.97;12.87;;;;;;;1.85;61.35;99976.03;10272713;28;20791;-34
2022/12/03 00:13:31;;;;;;;17.77;11.93;;;;;;;2.20;61.17;99981.09;10280495;28;20247;-36
2022/12/03 00:18:33;;;;;;;17.23;13.10;;;;;;;1.68;61.98;99972.09;10286559;28;20244;-37
2022/12/03 00:23:34;;;;;;;16.90;11.77;;;;;;;2.01;61.09;99972.97;10285815;28;20785;-35
2022/12/03 00:28:42;;;;;;;19.30;13.30;;;;;;;2.16;61.29;99967.31;10286088;28;21011;-33
2022/12/03 00:33:44;;;;;;;17.03;12.57;;;;;;;2.32;61.33;99981.91;10285331;28;20846;-33
2022/12/03 00:38:46;;;;;;;16.70;11.90;;;;;;;2.73;59.73;99977.63;10286652;28;20239;-35
2022/12/03 00:43:47;;;;;;;17.50;11.93;;;;;;;2.40;60.19;99974.19;10285672;28;20241;-34
2022/12/03 00:48:49;;;;;;;28.57;12.20;;;;;;;1.73;62.27;99983.13;10284381;28;20598;-35
2022/12/03 00:53:51;;;;;;;16.93;12.10;;;;;;;1.54;61.66;99995.13;10280370;28;20292;-34
2022/12/03 00:58:52;;;;;;;16.50;11.80;;;;;;;1.84;61.04;99992.81;10283096;28;20245;-34
2022/12/03 01:03:54;;;;;;;16.23;11.70;;;;;;;2.47;60.79;99990.38;10285057;28;20242;-36
2022/12/03 01:08:56;;;;;;;18.17;12.87;;;;;;;2.67;60.81;99988.69;10282193;28;20247;-33
2022/12/03 01:13:57;;;;;;;15.20;11.67;;;;;;;2.47;60.76;99987.72;10278632;28;20604;-32
2022/12/03 01:18:59;;;;;;;15.53;11.30;;;;;;;3.16;59.83;99992.53;10284195;28;20268;-33
2022/12/03 01:24:01;;;;;;;17.87;11.83;;;;;;;1.75;61.57;100008.41;10301810;23;20243;-63
2022/12/03 01:29:04;;;;;;;17.17;12.80;;;;;;;2.56;60.47;100005.44;10321402;28;20251;-63
2022/12/03 01:34:05;;;;;;;16.93;11.83;;;;;;;2.39;60.40;99990.16;10318491;28;20225;-63
2022/12/03 01:39:07;;;;;;;18.40;12.37;;;;;;;2.02;60.88;99990.50;10324494;28;20239;-63
2022/12/03 01:44:30;;;;;;;17.17;12.20;;;;;;;2.78;60.22;99995.75;10323868;28;20237;-64
2022/12/03 01:49:42;;;;;;;17.80;13.60;;;;;;;2.07;61.48;100004.19;10320359;28;20236;-64
2022/12/03 01:54:54;;;;;;;20.83;12.70;;;;;;;3.30;59.44;100023.09;10322532;28;20716;-64
2022/12/03 01:59:58;;;;;;;21.57;12.70;;;;;;;2.17;60.47;100000.66;10318031;28;20321;-64
2022/12/03 02:05:05;;;;;;;17.07;12.50;;;;;;;2.56;60.04;100002.81;10322672;28;20246;-64
2022/12/03 02:10:10;;;;;;;20.43;13.50;;;;;;;2.44;60.62;100007.28;10314958;28;20306;-64
2022/12/03 02:15:12;;;;;;;19.77;12.93;;;;;;;3.17;58.82;100006.59;10319656;28;20229;-63
2022/12/03 02:20:14;;;;;;;17.83;11.57;;;;;;;3.12;58.68;100008.78;10320814;28;20302;-63
2022/12/03 02:25:21;;;;;;;17.53;12.43;;;;;;;2.49;60.40;100001.66;10322298;28;20252;-64
2022/12/03 02:30:25;;;;;;;17.93;12.03;;;;;;;3.63;58.19;100040.53;10322658;28;20233;-66
2022/12/03 02:35:35;;;;;;;19.57;12.00;;;;;;;3.08;59.00;100024.09;10319986;28;20225;-66
2022/12/03 02:40:37;;;;;;;17.60;12.10;;;;;;;2.12;60.89;100021.31;10317013;28;20240;-66
2022/12/03 02:45:50;;;;;;;21.30;13.43;;;;;;;2.93;59.30;100020.91;10317952;28;20742;-66
2022/12/03 02:50:56;;;;;;;21.33;13.90;;;;;;;2.84;59.43;100013.75;10322269;28;20227;-66
2022/12/03 02:56:00;;;;;;;18.50;13.07;;;;;;;2.80;59.11;100010.50;10321129;28;20243;-66
2022/12/03 03:01:03;;;;;;;17.20;12.50;;;;;;;2.17;59.77;99992.72;10316088;28;20745;-66
2022/12/03 03:06:07;;;;;;;17.30;12.70;;;;;;;2.12;61.04;100012.56;10318346;28;20235;-66
2022/12/03 03:11:09;;;;;;;16.03;11.97;;;;;;;1.71;62.16;100012.25;10311953;28;20240;-66
2022/12/03 03:16:11;;;;;;;18.07;12.13;;;;;;;1.84;61.22;100004.19;10320660;28;20232;-66
2022/12/03 03:21:13;;;;;;;15.50;11.83;;;;;;;2.17;61.13;100010.38;10320928;28;20294;-67
2022/12/03 03:26:15;;;;;;;15.67;11.83;;;;;;;1.74;62.08;100000.63;10319167;28;20283;-66
2022/12/03 03:31:21;;;;;;;19.23;13.50;;;;;;;2.19;61.64;100005.00;10320078;28;20238;-66
2022/12/03 03:36:25;;;;;;;17.27;12.50;;;;;;;2.09;61.13;100013.63;10328651;28;20269;-66
2022/12/03 03:41:27;;;;;;;17.07;12.53;;;;;;;1.64;62.20;100004.94;10319858;28;20663;-66
2022/12/03 03:46:29;;;;;;;19.37;13.00;;;;;;;1.87;61.38;99990.75;10324773;28;20280;-66
2022/12/03 03:51:33;;;;;;;19.10;12.67;;;;;;;1.30;62.71;99995.19;10322429;28;20270;-66
2022/12/03 03:56:36;;;;;;;20.03;13.80;;;;;;;1.67;61.15;99973.03;10327878;28;20240;-66
2022/12/03 04:01:37;;;;;;;19.90;13.83;;;;;;;2.87;59.20;99982.59;10327448;28;20239;-66
2022/12/03 04:06:39;;;;;;;18.93;13.27;;;;;;;2.03;60.86;100000.09;10328685;28;20322;-66
2022/12/03 04:17:02;;;;;;;20.80;12.83;;;;;;;2.75;59.64;99983.59;10326500;28;20282;-66
2022/12/03 04:38:04;;;;;;;18.73;12.50;;;;;;;2.00;61.13;99980.06;10323641;28;20749;-66
2022/12/03 04:43:06;;;;;;;19.10;13.63;;;;;;;2.00;60.90;99990.63;10321582;28;20326;-67
2022/12/03 04:48:09;;;;;;;16.50;12.27;;;;;;;1.52;60.80;99988.28;10328289;28;20637;-65
2022/12/03 04:53:10;;;;;;;18.97;12.17;;;;;;;0.89;62.85;99972.03;10321625;28;20283;-66
2022/12/03 04:58:12;;;;;;;20.00;14.10;;;;;;;2.28;61.04;99980.44;10324516;28;20250;-66
2022/12/03 05:03:14;;;;;;;20.97;14.43;;;;;;;2.05;61.43;99971.78;10323593;28;20239;-66
2022/12/03 05:08:15;;;;;;;21.77;14.27;;;;;;;1.80;61.23;99964.03;10324433;28;20972;-66
2022/12/03 05:13:17;;;;;;;20.37;13.73;;;;;;;1.28;61.92;99973.38;10318213;28;20247;-66
2022/12/03 05:18:19;;;;;;;24.43;14.77;;;;;;;1.83;62.42;99967.38;10327092;28;20239;-66
2022/12/03 05:23:20;;;;;;;22.23;14.10;;;;;;;1.98;61.23;99955.59;10319714;28;20896;-66
2022/12/03 05:28:23;;;;;;;22.33;14.03;;;;;;;2.28;60.95;99956.69;10323950;28;20243;-66
2022/12/03 05:33:24;;;;;;;25.03;15.57;;;;;;;1.80;62.18;99956.09;10321433;28;20283;-69
2022/12/03 05:38:26;;;;;;;21.90;14.83;;;;;;;1.60;62.25;99949.78;10322071;28;20242;-65
2022/12/03 05:43:28;;;;;;;26.33;15.00;;;;;;;1.59;62.35;99950.75;10322303;28;20242;-66
2022/12/03 05:48:29;;;;;;;21.20;14.53;;;;;;;2.18;61.51;99948.72;10319156;28;20711;-66
2022/12/03 05:53:31;;;;;;;22.87;15.40;;;;;;;2.24;59.85;99928.88;10320390;28;20851;-67
2022/12/03 05:58:33;;;;;;;22.33;15.17;;;;;;;2.56;58.98;99935.94;10323127;28;20235;-66
2022/12/03 06:03:34;;;;;;;24.90;16.03;;;;;;;2.88;59.01;99951.72;10327071;28;20877;-67
2022/12/03 06:08:36;;;;;;;23.07;15.00;;;;;;;2.21;59.81;99959.00;10317697;28;20331;-66
2022/12/03 06:13:38;;;;;;;24.77;15.50;;;;;;;1.95;60.17;99954.03;10317640;28;20271;-65
2022/12/03 06:18:39;;;;;;;25.77;14.33;;;;;;;2.36;59.12;99941.06;10326937;28;20264;-66
2022/12/03 06:23:43;;;;;;;25.57;16.03;;;;;;;3.32;58.22;99973.53;10324476;28;20229;-66
2022/12/03 06:28:46;;;;;;;23.77;15.97;;;;;;;2.25;60.00;99962.22;10321527;28;20775;-65
2022/12/03 06:33:48;;;;;;;29.07;16.90;;;;;;;1.36;61.21;99963.09;10325375;28;20246;-67
2022/12/03 06:38:49;;;;;;;24.80;16.07;;;;;;;1.45;61.71;99984.44;10322806;28;21344;-64
2022/12/03 06:43:51;;;;;;;27.43;16.83;;;;;;;2.10;59.75;99974.88;10321807;28;20254;-65
2022/12/03 06:48:53;;;;;;;30.87;16.40;;;;;;;2.49;58.06;99977.88;10322735;28;20242;-65
2022/12/03 06:53:54;;;;;;;28.70;17.33;;;;;;;1.24;60.53;99990.41;10317944;28;20243;-65
2022/12/03 06:58:56;;;;;;;30.90;17.33;;;;;;;1.51;60.55;99986.63;10316165;28;20242;-65
2022/12/03 07:03:57;;;;;;;31.10;16.90;;;;;;;1.80;60.24;99990.41;10320727;28;20243;-68
2022/12/03 07:08:59;;;;;;;29.37;16.93;;;;;;;1.88;59.83;99984.53;10320501;28;20242;-65
2022/12/03 07:14:01;;;;;;;30.43;16.93;;;;;;;2.39;59.06;99987.53;10314967;28;20243;-65
2022/12/03 07:19:06;;;;;;;28.33;17.93;;;;;;;1.79;60.30;100007.22;10317688;28;20244;-66
2022/12/03 07:24:08;;;;;;;29.97;18.10;;;;;;;1.76;60.08;99998.72;10328261;28;20848;-66
2022/12/03 07:29:09;;;;;;;30.20;16.97;;;;;;;1.79;59.60;99999.31;10325729;28;20230;-65
2022/12/03 07:34:11;;;;;;;30.13;17.50;;;;;;;1.84;60.35;100006.00;10329235;28;20252;-65
2022/12/03 07:39:13;;;;;;;27.40;16.83;;;;;;;2.52;58.76;99993.47;10330504;28;20245;-66
2022/12/03 07:44:15;;;;;;;26.90;16.40;;;;;;;1.89;59.35;99990.63;10328102;28;20270;-67
2022/12/03 07:49:16;;;;;;;30.57;17.53;;;;;;;1.56;60.96;100008.19;10330074;28;20242;-65
2022/12/03 07:54:22;;;;;;;28.93;19.67;;;;;;;2.08;59.46;99996.13;10322566;28;20671;-66
2022/12/03 07:59:24;;;;;;;36.60;20.67;;;;;;;2.36;59.78;99997.34;10328018;28;20607;-66
2022/12/03 08:04:25;;;;;;;38.63;21.03;;;;;;;1.69;59.86;99986.94;10327652;28;20251;-66
2022/12/03 08:09:27;;;;;;;55.97;29.50;;;;;;;1.92;60.11;99998.31;10320229;28;20240;-66
2022/12/03 08:14:29;;;;;;;34.57;21.43;;;;;;;2.16;59.85;100009.56;10328605;28;20239;-66
2022/12/03 08:19:30;;;;;;;119.67;70.10;;;;;;;1.66;59.30;99971.34;10326702;28;20861;-66
2022/12/03 08:24:32;;;;;;;67.93;42.30;;;;;;;1.69;60.15;99981.66;10326542;28;20338;-66
2022/12/03 08:29:34;;;;;;;43.20;25.80;;;;;;;1.59;60.81;99974.50;10327320;28;20242;-66
2022/12/03 08:34:41;;;;;;;44.87;27.37;;;;;;;1.33;60.82;99981.81;10347336;23;21191;-33
2022/12/03 08:39:48;;;;;;;48.57;30.87;;;;;;;2.09;59.45;99971.38;10323649;28;20649;-32
2022/12/03 08:44:51;;;;;;;124.10;73.00;;;;;;;2.20;59.84;99972.31;10324201;28;20256;-32
2022/12/03 08:49:56;;;;;;;83.37;46.63;;;;;;;2.64;59.09;99970.47;10317908;23;20243;-90
2022/12/03 08:55:01;;;;;;;99.00;60.30;;;;;;;2.33;59.52;99970.34;10279525;28;20706;-89
2022/12/03 09:00:18;;;;;;;148.77;84.47;;;;;;;2.32;59.70;99980.09;10279545;28;20241;-88
2022/12/03 09:05:38;;;;;;;109.73;60.13;;;;;;;2.58;58.92;99966.53;10280585;28;20229;-87
2022/12/03 09:10:39;;;;;;;57.57;32.17;;;;;;;2.46;58.84;99976.31;10269643;28;20237;-90
2022/12/03 09:15:41;;;;;;;51.17;28.57;;;;;;;1.21;61.30;99977.47;10272549;28;20244;-88
2022/12/03 09:20:43;;;;;;;64.63;40.10;;;;;;;1.45;59.70;99979.19;10268773;28;20703;-88
2022/12/03 09:25:45;;;;;;;85.40;50.87;;;;;;;1.60;60.77;99999.06;10265129;28;20258;-90
2022/12/03 09:30:46;;;;;;;45.33;25.87;;;;;;;1.86;60.59;100001.44;10274230;28;20240;-89
2022/12/03 09:35:48;;;;;;;59.27;33.17;;;;;;;2.32;59.36;99974.81;10269636;28;20405;-88
2022/12/03 09:40:50;;;;;;;41.37;25.70;;;;;;;2.93;58.50;99975.16;10268735;28;20245;-89
2022/12/03 09:45:52;;;;;;;42.90;24.93;;;;;;;2.85;58.31;100003.00;10289993;28;20233;-87
2022/12/03 09:50:54;;;;;;;39.37;22.43;;;;;;;3.49;57.88;100001.19;10249978;28;20243;-87
2022/12/03 09:55:58;;;;;;;43.20;29.27;;;;;;;2.82;58.55;99982.16;10258197;28;20230;-87
2022/12/03 10:01:00;;;;;;;37.10;22.83;;;;;;;2.53;59.00;99952.84;10289233;28;20271;-87
2022/12/03 10:06:02;;;;;;;33.33;21.97;;;;;;;1.74;60.03;99963.69;10264381;28;20233;-89
2022/12/03 10:11:04;;;;;;;36.63;21.27;;;;;;;2.86;58.78;99948.38;10257781;28;20242;-88
2022/12/03 10:16:10;;;;;;;34.70;21.87;;;;;;;3.14;58.45;99962.72;10263057;28;20233;-88
2022/12/03 10:21:36;;;;;;;36.97;20.67;;;;;;;3.17;58.81;99957.16;10269038;28;20245;-88
2022/12/03 10:26:39;;;;;;;34.57;21.40;;;;;;;2.97;58.54;99944.81;10257881;28;20544;-88
2022/12/03 10:31:41;;;;;;;40.80;23.80;;;;;;;3.04;58.48;99936.25;10260535;28;20244;-90
2022/12/03 10:36:43;;;;;;;38.80;21.33;;;;;;;1.80;60.02;99940.28;10294268;28;20238;-89
2022/12/03 10:41:44;;;;;;;35.80;22.77;;;;;;;2.84;59.07;99937.91;10264998;28;20253;-88
2022/12/03 10:47:05;;;;;;;35.77;22.07;;;;;;;2.71;59.72;99953.13;10260091;28;20679;-88
2022/12/03 10:52:21;;;;;;;34.53;21.13;;;;;;;3.18;58.60;99927.13;10262169;28;20245;-88
2022/12/03 10:57:26;;;;;;;37.33;21.97;;;;;;;2.78;59.71;99922.56;10260366;28;20241;-90
2022/12/03 11:06:24;;;;;;;35.73;22.37;;;;;;;0.77;64.28;99916.66;10441473;27;24699;-66
2022/12/03 11:11:28;;;;;;;38.23;22.87;;;;;;;1.57;63.32;99894.66;10398725;28;20239;-66
2022/12/03 11:16:38;;;;;;;35.10;21.93;;;;;;;1.04;64.25;99892.63;10425207;28;20239;-65
2022/12/03 11:22:05;;;;;;;36.43;22.23;;;;;;;1.95;62.84;99874.84;10435278;28;20245;-66
2022/12/03 11:27:09;;;;;;;36.67;23.40;;;;;;;1.51;63.08;99875.84;10426151;28;20865;-66
2022/12/03 11:32:37;;;;;;;55.03;30.47;;;;;;;1.14;63.93;99858.47;10443312;28;20238;-66
2022/12/03 11:37:38;;;;;;;86.93;54.13;;;;;;;1.48;62.76;99855.81;10434662;28;20326;-66
2022/12/03 11:42:40;;;;;;;43.20;25.23;;;;;;;1.60;63.18;99843.44;10427763;28;20258;-68
2022/12/03 11:47:45;;;;;;;40.87;26.27;;;;;;;1.94;62.94;99832.75;10422016;28;20262;-68
2022/12/03 11:53:09;;;;;;;42.50;23.97;;;;;;;2.16;62.40;99816.81;10430329;28;20235;-65
2022/12/03 11:58:24;;;;;;;37.77;22.93;;;;;;;2.22;62.17;99811.97;10394755;28;20705;-66
2022/12/03 12:03:31;;;;;;;38.63;25.43;;;;;;;2.56;61.23;99814.41;10388546;28;20438;-66
2022/12/03 12:08:40;;;;;;;39.43;27.17;;;;;;;2.09;62.29;99804.25;10384220;28;20247;-66
2022/12/03 12:13:42;;;;;;;34.87;23.50;;;;;;;2.50;61.69;99789.31;10365547;28;20328;-66
2022/12/03 12:18:47;;;;;;;45.17;31.90;;;;;;;2.57;61.16;99787.84;10352266;28;20243;-68
2022/12/03 12:23:55;;;;;;;35.50;22.30;;;;;;;2.97;60.91;99805.53;10353657;28;20318;-68
2022/12/03 12:28:56;;;;;;;41.60;26.93;;;;;;;3.01;60.09;99796.38;10349768;28;20239;-68
2022/12/03 12:33:58;;;;;;;33.60;21.17;;;;;;;2.88;60.61;99801.03;10359763;28;20241;-68
2022/12/03 12:39:00;;;;;;;56.20;39.37;;;;;;;2.66;61.64;99781.75;10352540;28;20247;-68
2022/12/03 12:44:07;;;;;;;44.30;30.67;;;;;;;1.92;62.58;99776.63;10363488;28;20558;-66
2022/12/03 12:49:14;;;;;;;44.33;27.07;;;;;;;2.56;61.70;99785.34;10380531;28;20273;-68
2022/12/03 12:54:19;;;;;;;48.23;28.70;;;;;;;2.20;61.61;99769.88;10355830;28;20652;-66
2022/12/03 12:59:23;;;;;;;57.10;35.77;;;;;;;2.96;60.94;99781.91;10375640;28;20247;-67
2022/12/03 13:04:26;;;;;;;50.73;29.50;;;;;;;3.00;60.79;99788.59;10351178;28;20285;-69
2022/12/03 13:09:28;;;;;;;46.97;27.83;;;;;;;2.65;60.90;99779.25;10363186;28;20247;-69
2022/12/03 13:14:34;;;;;;;42.27;25.23;;;;;;;3.58;59.75;99807.22;10355967;28;20597;-67
2022/12/03 13:19:39;;;;;;;43.43;26.57;;;;;;;2.71;60.20;99768.97;10360744;28;20764;-67
2022/12/03 13:24:51;;;;;;;38.37;21.03;;;;;;;2.35;60.64;99746.59;10348394;28;20330;-69
2022/12/03 13:30:00;;;;;;;52.60;33.60;;;;;;;2.32;61.65;99771.44;10353579;28;20240;-66
2022/12/03 13:35:26;;;;;;;43.83;27.60;;;;;;;2.89;60.29;99768.38;10351959;28;20252;-69
2022/12/03 13:40:31;;;;;;;61.60;34.80;;;;;;;3.06;60.00;99762.44;10354663;28;20240;-69
2022/12/03 13:45:37;;;;;;;89.47;47.33;;;;;;;2.43;60.96;99759.13;10353116;28;20248;-69
2022/12/03 13:50:43;;;;;;;32.70;19.83;;;;;;;1.96;60.52;99749.00;10357690;28;20299;-66
2022/12/03 13:55:47;;;;;;;31.27;19.13;;;;;;;2.82;59.28;99757.50;10353120;28;20235;-67
2022/12/03 14:00:49;;;;;;;86.83;45.70;;;;;;;2.56;59.02;99756.28;10366374;28;20437;-66
2022/12/03 14:05:50;;;;;;;294.60;152.77;;;;;;;2.28;59.97;99756.84;10356834;28;20290;-67
2022/12/03 14:10:52;;;;;;;31.67;19.87;;;;;;;2.35;58.78;99783.56;10348953;28;20246;-67
2022/12/03 14:16:01;;;;;;;26.77;17.93;;;;;;;2.15;59.56;99793.19;10347528;28;20235;-66
2022/12/03 14:21:02;;;;;;;25.67;16.67;;;;;;;2.88;58.45;99803.69;10354437;28;20241;-66
2022/12/03 14:26:04;;;;;;;28.43;17.27;;;;;;;2.85;57.99;99799.47;10350801;28;20668;-67
2022/12/03 14:31:06;;;;;;;29.70;19.37;;;;;;;2.79;58.33;99800.03;10369480;22;20235;-35
2022/12/03 14:36:08;;;;;;;26.93;16.93;;;;;;;2.19;58.86;99791.13;10388499;28;20228;-34
2022/12/03 14:42:11;;;;;;;23.63;15.43;;;;;;;2.23;58.35;99811.00;10416556;28;20754;-33
2022/12/03 14:46:31;;;;;;;21.97;14.67;;;;;;;1.61;58.76;99797.63;10397869;28;20241;-33
2022/12/03 14:51:33;;;;;;;24.20;16.00;;;;;;;1.94;58.50;99799.28;10409536;28;20755;-33
2022/12/03 14:56:35;;;;;;;21.60;14.63;;;;;;;2.14;58.22;99808.16;10408201;28;20243;-34
2022/12/03 15:01:37;;;;;;;22.17;15.10;;;;;;;1.95;58.47;99805.41;10415146;28;20242;-32
2022/12/03 15:06:38;;;;;;;20.63;14.03;;;;;;;2.38;57.64;99804.41;10409149;28;20287;-33
2022/12/03 15:11:40;;;;;;;21.70;14.97;;;;;;;2.52;57.83;99830.50;10406131;28;20251;-34
2022/12/03 15:16:47;;;;;;;21.10;14.23;;;;;;;1.97;58.97;99819.31;10400416;28;20243;-31
2022/12/03 15:21:48;;;;;;;19.43;14.20;;;;;;;2.14;58.15;99825.81;10405470;28;20246;-32
2022/12/03 15:26:52;;;;;;;24.07;14.93;;;;;;;2.23;57.54;99821.56;10404486;28;20261;-33
2022/12/03 15:31:54;;;;;;;23.23;13.57;;;;;;;1.50;58.45;99811.69;10410064;28;20245;-37
2022/12/03 15:36:55;;;;;;;21.37;13.93;;;;;;;1.17;59.08;99807.28;10415069;28;20246;-35
2022/12/03 15:41:57;;;;;;;22.37;13.53;;;;;;;1.15;59.06;99819.75;10422995;28;20227;-34
2022/12/03 15:46:59;;;;;;;22.70;15.20;;;;;;;1.76;58.94;99841.22;10404663;28;20245;-36
2022/12/03 15:52:01;;;;;;;20.50;14.03;;;;;;;2.09;57.81;99818.28;10402413;28;20235;-34
2022/12/03 15:57:02;;;;;;;26.20;16.60;;;;;;;2.12;57.16;99825.94;10415829;28;20270;-35
2022/12/03 16:02:04;;;;;;;23.50;16.27;;;;;;;2.44;56.48;99829.50;10419408;28;20255;-34
2022/12/03 16:07:06;;;;;;;20.70;13.17;;;;;;;1.24;59.21;99821.69;10417195;28;20246;-33
2022/12/03 16:12:08;;;;;;;22.23;15.23;;;;;;;1.86;58.36;99833.41;10411544;28;20250;-34
2022/12/03 16:17:10;;;;;;;23.40;16.77;;;;;;;1.64;58.62;99834.31;10410368;28;20250;-37
2022/12/03 16:22:12;;;;;;;25.07;16.10;;;;;;;1.66;58.42;99828.91;10417800;28;20665;-34
2022/12/03 16:27:14;;;;;;;25.93;16.73;;;;;;;2.03;58.36;99841.69;10405792;28;20262;-33
2022/12/03 16:32:15;;;;;;;22.13;14.87;;;;;;;1.54;58.52;99826.31;10415835;28;20236;-34
2022/12/03 16:37:17;;;;;;;26.77;16.53;;;;;;;1.56;58.17;99819.09;10407149;28;20239;-35
2022/12/03 16:42:19;;;;;;;27.30;15.17;;;;;;;1.20;59.46;99825.50;10388412;28;20751;-32
2022/12/03 16:47:21;;;;;;;23.90;15.53;;;;;;;2.36;57.10;99816.91;10404852;28;20250;-33
2022/12/03 16:52:23;;;;;;;25.63;15.83;;;;;;;2.34;57.15;99808.31;10416447;28;20237;-36
2022/12/03 16:57:24;;;;;;;23.10;16.27;;;;;;;1.80;58.64;99810.97;10411377;28;20354;-34
2022/12/03 17:02:34;;;;;;;26.20;16.40;;;;;;;1.98;57.68;99810.44;10404758;28;20243;-33
2022/12/03 17:07:35;;;;;;;25.90;16.93;;;;;;;1.07;58.99;99809.84;10402558;28;20318;-33
2022/12/03 17:12:37;;;;;;;26.77;17.10;;;;;;;1.70;58.45;99817.97;10406397;28;20250;-32
2022/12/03 17:17:59;;;;;;;26.40;16.03;;;;;;;1.05;59.29;99819.66;10404498;28;20249;-33
2022/12/03 17:23:01;;;;;;;27.37;16.67;;;;;;;1.42;58.66;99812.31;10410905;28;20236;-36
2022/12/03 17:28:03;;;;;;;24.93;14.87;;;;;;;0.62;59.82;99794.88;10417310;28;20240;-33
2022/12/03 17:33:05;;;;;;;27.47;17.37;;;;;;;2.01;58.34;99812.78;10414676;28;21024;-34
2022/12/03 17:38:07;;;;;;;28.43;17.67;;;;;;;1.36;59.18;99815.44;10408510;28;20732;-34
2022/12/03 17:43:09;;;;;;;29.97;18.73;;;;;;;1.52;58.76;99795.75;10415214;28;20245;-36
2022/12/03 17:48:11;;;;;;;31.93;18.33;;;;;;;1.49;59.07;99788.94;10396419;28;20238;-32
2022/12/03 17:53:13;;;;;;;31.23;19.00;;;;;;;2.14;57.80;99789.69;10411029;28;20229;-36
2022/12/03 17:58:14;;;;;;;34.73;19.93;;;;;;;2.13;58.01;99785.38;10411785;28;20231;-36
2022/12/03 18:03:16;;;;;;;30.03;20.73;;;;;;;1.61;58.19;99792.38;10412862;28;20778;-32
2022/12/03 18:08:18;;;;;;;30.27;18.57;;;;;;;1.80;58.36;99787.22;10409484;28;20230;-32
2022/12/03 18:13:20;;;;;;;28.57;18.80;;;;;;;1.80;58.22;99796.94;10405773;28;20246;-34
2022/12/03 18:18:21;;;;;;;32.67;19.43;;;;;;;1.14;59.37;99802.28;10410582;28;20760;-38
2022/12/03 18:23:23;;;;;;;32.90;20.30;;;;;;;1.26;59.39;99782.84;10405813;28;20766;-36
2022/12/03 18:28:25;;;;;;;28.07;18.90;;;;;;;1.72;58.92;99794.09;10414452;28;20242;-33
2022/12/03 18:33:27;;;;;;;32.73;19.40;;;;;;;1.58;59.06;99793.44;10417355;28;20243;-36
2022/12/03 18:38:31;;;;;;;28.03;17.70;;;;;;;1.00;59.61;99785.78;10409247;28;20253;-35
2022/12/03 18:43:33;;;;;;;30.20;18.07;;;;;;;1.47;59.17;99785.56;10400505;28;20731;-33
2022/12/03 18:48:35;;;;;;;31.53;19.00;;;;;;;1.20;59.48;99783.31;10398550;28;20609;-34
2022/12/03 18:53:37;;;;;;;26.67;16.93;;;;;;;1.30;58.39;99762.34;10403215;28;20251;-31
2022/12/03 18:58:39;;;;;;;30.80;18.20;;;;;;;1.09;60.15;99781.56;10406601;28;20255;-39
2022/12/03 19:03:41;;;;;;;22.37;13.50;;;;;;;0.56;60.17;99770.81;10402538;28;20237;-33
2022/12/03 19:08:43;;;;;;;35.43;19.97;;;;;;;1.77;58.58;99760.25;10397761;28;20241;-33
2022/12/03 19:13:45;;;;;;;31.20;19.17;;;;;;;1.42;58.97;99772.78;10402656;28;20232;-34
2022/12/03 19:18:47;;;;;;;30.70;17.83;;;;;;;1.64;58.92;99760.47;10402878;28;20648;-34
2022/12/03 19:23:49;;;;;;;26.37;17.53;;;;;;;1.71;57.87;99755.47;10398671;28;20226;-32
2022/12/03 19:29:11;;;;;;;28.80;16.20;;;;;;;1.14;59.14;99760.13;10401894;28;20758;-36
2022/12/03 19:34:12;;;;;;;29.07;15.63;;;;;;;1.02;59.66;99767.22;10404848;28;20239;-34
2022/12/03 19:39:14;;;;;;;32.50;17.10;;;;;;;0.86;59.18;99757.03;10405020;28;20244;-34
2022/12/03 19:44:17;;;;;;;28.67;18.20;;;;;;;0.97;59.57;99775.47;10401925;28;20257;-34
2022/12/03 19:49:20;;;;;;;29.33;18.07;;;;;;;1.84;58.49;99768.50;10409983;28;20229;-34
2022/12/03 19:54:22;;;;;;;30.47;17.47;;;;;;;1.36;58.54;99756.59;10415422;28;20332;-34
2022/12/03 19:59:24;;;;;;;29.87;17.43;;;;;;;1.88;57.93;99754.09;10413971;28;20970;-38
2022/12/03 20:04:26;;;;;;;26.33;16.73;;;;;;;1.09;58.76;99755.22;10416424;28;20245;-33
2022/12/03 20:09:27;;;;;;;32.37;20.23;;;;;;;1.79;58.28;99756.53;10410234;28;20250;-38
2022/12/03 20:14:29;;;;;;;27.47;17.00;;;;;;;0.76;59.65;99771.91;10407515;28;20270;-34
2022/12/03 20:19:31;;;;;;;31.17;18.07;;;;;;;1.30;59.42;99768.44;10396795;28;20245;-37
2022/12/03 20:24:33;;;;;;;28.70;17.27;;;;;;;1.80;57.69;99762.66;10401197;28;20241;-34
2022/12/03 20:29:35;;;;;;;26.60;17.07;;;;;;;1.24;58.72;99782.97;10400328;28;20275;-37
2022/12/03 20:34:36;;;;;;;26.27;16.10;;;;;;;0.68;59.43;99777.78;10373910;28;20977;-35
2022/12/03 20:39:38;;;;;;;27.93;18.50;;;;;;;1.06;59.19;99784.44;10368724;28;20242;-37
2022/12/03 20:44:40;;;;;;;27.17;16.63;;;;;;;1.55;57.61;99758.56;10371837;28;20233;-36
2022/12/03 20:49:42;;;;;;;27.77;16.10;;;;;;;1.45;58.12;99770.84;10363941;22;20270;-27
2022/12/03 20:54:44;;;;;;;24.63;15.50;;;;;;;0.50;59.62;99753.72;10333560;28;20245;-29
2022/12/03 20:59:45;;;;;;;29.63;18.47;;;;;;;1.98;57.18;99744.44;10363816;28;20250;-28
2022/12/03 21:04:47;;;;;;;29.93;17.40;;;;;;;1.25;58.26;99746.88;10349325;28;20756;-28
2022/12/03 21:09:49;;;;;;;28.87;17.37;;;;;;;1.14;58.88;99744.31;10345069;28;20235;-28
2022/12/03 21:14:51;;;;;;;28.30;17.93;;;;;;;0.79;59.64;99754.06;10345001;28;20250;-28
2022/12/03 21:19:52;;;;;;;26.33;17.50;;;;;;;0.48;59.65;99750.38;10350794;28;20255;-28
2022/12/03 21:24:55;;;;;;;29.47;18.37;;;;;;;0.85;59.27;99750.94;10353987;28;20234;-28
2022/12/03 21:29:56;;;;;;;25.87;17.13;;;;;;;1.30;58.40;99751.78;10354892;28;20235;-27
2022/12/03 21:34:58;;;;;;;32.43;19.23;;;;;;;1.17;57.99;99731.72;10352715;28;20255;-28
2022/12/03 21:40:00;;;;;;;29.57;18.43;;;;;;;1.56;57.93;99736.50;10351969;28;20246;-28
2022/12/03 21:45:02;;;;;;;27.60;18.57;;;;;;;2.31;56.32;99732.78;10344834;28;20240;-29
2022/12/03 21:50:08;;;;;;;29.83;18.43;;;;;;;1.23;58.11;99733.00;10341094;28;20244;-29
2022/12/03 21:55:09;;;;;;;28.17;17.60;;;;;;;1.23;57.86;99738.28;10340919;28;20852;-27
2022/12/03 22:00:12;;;;;;;28.83;17.40;;;;;;;0.87;58.28;99748.19;10341936;28;20247;-29
2022/12/03 22:05:13;;;;;;;29.93;18.27;;;;;;;1.47;57.48;99751.28;10328991;28;20244;-29
2022/12/03 22:10:15;;;;;;;26.93;18.43;;;;;;;1.12;58.20;99760.25;10335090;28;20259;-29
2022/12/03 22:15:17;;;;;;;26.93;17.07;;;;;;;1.49;57.38;99733.53;10356098;28;20247;-29
2022/12/03 22:20:20;;;;;;;23.70;16.57;;;;;;;1.84;56.70;99753.50;10357263;28;20587;-28
2022/12/03 22:25:22;;;;;;;29.07;17.33;;;;;;;0.75;58.39;99760.53;10355966;28;20466;-29
2022/12/03 22:30:23;;;;;;;25.60;17.37;;;;;;;1.15;58.07;99740.69;10351248;28;20247;-27
2022/12/03 22:35:25;;;;;;;22.43;16.23;;;;;;;1.36;57.94;99752.16;10361559;28;20599;-29
2022/12/03 22:40:27;;;;;;;25.03;15.53;;;;;;;1.20;57.86;99730.59;10363728;28;20889;-28
2022/12/03 22:45:28;;;;;;;23.43;16.80;;;;;;;1.36;57.43;99752.16;10362301;28;20231;-28
2022/12/03 22:50:30;;;;;;;25.80;16.77;;;;;;;1.22;57.46;99719.00;10325700;28;20225;-29
2022/12/03 22:55:32;;;;;;;24.80;17.10;;;;;;;0.68;57.75;99725.94;10340911;28;20263;-29
2022/12/03 23:00:39;;;;;;;26.00;17.50;;;;;;;0.44;58.47;99720.81;10330393;28;20273;-30
2022/12/03 23:05:42;;;;;;;29.63;18.17;;;;;;;0.65;59.23;99739.34;10336302;28;20239;-29
2022/12/03 23:10:46;;;;;;;24.50;16.87;;;;;;;0.97;58.05;99712.22;10339940;28;20230;-29
2022/12/03 23:15:50;;;;;;;23.97;15.67;;;;;;;0.95;57.59;99714.16;10335704;28;20232;-28
2022/12/03 23:20:53;;;;;;;23.43;16.07;;;;;;;1.22;57.88;99723.44;10365616;28;20229;-29
2022/12/03 23:26:06;;;;;;;28.67;16.93;;;;;;;0.42;59.11;99724.50;10337815;28;20229;-28
2022/12/03 23:31:29;;;;;;;28.23;17.03;;;;;;;0.74;58.68;99736.94;10338059;28;20229;-28
2022/12/03 23:36:32;;;;;;;26.57;15.73;;;;;;;1.06;58.04;99739.63;10374898;28;20237;-28
2022/12/03 23:41:34;;;;;;;30.67;16.73;;;;;;;1.42;57.41;99727.94;10380677;28;20236;-27